sensor_id;sensor_type;location;lat;lon;timestamp;pressure;altitude;pressure_sealevel;temperature
70533;BMP180;58088;51.186;17.130;2023-05-07T00:00:58;100687.40;;;11.10
70533;BMP180;58088;51.186;17.130;2023-05-07T00:03:26;100686.60;;;11.10
70533;BMP180;58088;51.186;17.130;2023-05-07T00:05:53;100689.40;;;11.10
70533;BMP180;58088;51.186;17.130;2023-05-07T00:08:19;100684.60;;;11.10
70533;BMP180;58088;51.186;17.130;2023-05-07T00:10:46;100687.00;;;11.10
70533;BMP180;58088;51.186;17.130;2023-05-07T00:13:12;100683.00;;;11.10
70533;BMP180;58088;51.186;17.130;2023-05-07T00:15:38;100691.00;;;11.00
70533;BMP180;58088;51.186;17.130;2023-05-07T00:18:05;100694.60;;;11.08
70533;BMP180;58088;51.186;17.130;2023-05-07T00:20:31;100693.80;;;11.00
70533;BMP180;58088;51.186;17.130;2023-05-07T00:22:57;100689.80;;;11.10
70533;BMP180;58088;51.186;17.130;2023-05-07T00:25:23;100691.40;;;11.10
70533;BMP180;58088;51.186;17.130;2023-05-07T00:27:49;100695.40;;;11.10
70533;BMP180;58088;51.186;17.130;2023-05-07T00:30:15;100696.60;;;11.10
70533;BMP180;58088;51.186;17.130;2023-05-07T00:32:42;100695.60;;;11.10
70533;BMP180;58088;51.186;17.130;2023-05-07T00:35:08;100689.80;;;11.00
70533;BMP180;58088;51.186;17.130;2023-05-07T00:37:35;100696.40;;;11.00
70533;BMP180;58088;51.186;17.130;2023-05-07T00:40:01;100693.20;;;11.08
70533;BMP180;58088;51.186;17.130;2023-05-07T00:42:30;100699.60;;;11.00
70533;BMP180;58088;51.186;17.130;2023-05-07T00:44:58;100710.40;;;11.00
70533;BMP180;58088;51.186;17.130;2023-05-07T00:47:25;100709.20;;;11.00
70533;BMP180;58088;51.186;17.130;2023-05-07T00:49:52;100707.00;;;11.00
70533;BMP180;58088;51.186;17.130;2023-05-07T00:52:21;100710.00;;;10.90
70533;BMP180;58088;51.186;17.130;2023-05-07T00:54:49;100715.00;;;11.00
70533;BMP180;58088;51.186;17.130;2023-05-07T00:57:16;100713.60;;;10.90
70533;BMP180;58088;51.186;17.130;2023-05-07T00:59:42;100711.80;;;10.90
70533;BMP180;58088;51.186;17.130;2023-05-07T01:02:08;100717.00;;;11.00
70533;BMP180;58088;51.186;17.130;2023-05-07T01:04:35;100714.60;;;11.00
70533;BMP180;58088;51.186;17.130;2023-05-07T01:07:03;100713.60;;;11.00
70533;BMP180;58088;51.186;17.130;2023-05-07T01:09:31;100713.40;;;10.90
70533;BMP180;58088;51.186;17.130;2023-05-07T01:11:58;100718.80;;;10.90
70533;BMP180;58088;51.186;17.130;2023-05-07T01:14:25;100716.20;;;10.90
70533;BMP180;58088;51.186;17.130;2023-05-07T01:16:51;100716.20;;;10.90
70533;BMP180;58088;51.186;17.130;2023-05-07T01:19:20;100719.40;;;10.80
70533;BMP180;58088;51.186;17.130;2023-05-07T01:21:48;100718.20;;;10.86
70533;BMP180;58088;51.186;17.130;2023-05-07T01:24:16;100716.80;;;10.90
70533;BMP180;58088;51.186;17.130;2023-05-07T01:26:44;100711.20;;;10.80
70533;BMP180;58088;51.186;17.130;2023-05-07T01:29:11;100713.20;;;10.80
70533;BMP180;58088;51.186;17.130;2023-05-07T01:31:40;100711.20;;;10.80
70533;BMP180;58088;51.186;17.130;2023-05-07T01:34:09;100712.40;;;10.90
70533;BMP180;58088;51.186;17.130;2023-05-07T01:36:39;100710.60;;;10.90
70533;BMP180;58088;51.186;17.130;2023-05-07T01:39:06;100716.40;;;10.82
70533;BMP180;58088;51.186;17.130;2023-05-07T01:41:34;100720.60;;;10.90
70533;BMP180;58088;51.186;17.130;2023-05-07T01:44:03;100718.80;;;10.82
70533;BMP180;58088;51.186;17.130;2023-05-07T01:46:32;100723.40;;;10.80
70533;BMP180;58088;51.186;17.130;2023-05-07T01:48:59;100723.20;;;10.80
70533;BMP180;58088;51.186;17.130;2023-05-07T01:51:25;100725.00;;;10.80
70533;BMP180;58088;51.186;17.130;2023-05-07T01:53:52;100723.00;;;10.88
70533;BMP180;58088;51.186;17.130;2023-05-07T01:56:19;100727.60;;;10.80
70533;BMP180;58088;51.186;17.130;2023-05-07T01:58:46;100730.60;;;10.80
70533;BMP180;58088;51.186;17.130;2023-05-07T02:01:14;100726.60;;;10.80
70533;BMP180;58088;51.186;17.130;2023-05-07T02:04:18;100726.80;;;10.80
70533;BMP180;58088;51.186;17.130;2023-05-07T02:06:45;100733.80;;;10.80
70533;BMP180;58088;51.186;17.130;2023-05-07T02:09:13;100732.00;;;10.74
70533;BMP180;58088;51.186;17.130;2023-05-07T02:11:42;100733.00;;;10.70
70533;BMP180;58088;51.186;17.130;2023-05-07T02:14:08;100733.80;;;10.72
70533;BMP180;58088;51.186;17.130;2023-05-07T02:16:35;100739.40;;;10.80
70533;BMP180;58088;51.186;17.130;2023-05-07T02:19:03;100736.80;;;10.74
70533;BMP180;58088;51.186;17.130;2023-05-07T02:21:29;100740.00;;;10.70
70533;BMP180;58088;51.186;17.130;2023-05-07T02:23:56;100736.00;;;10.70
70533;BMP180;58088;51.186;17.130;2023-05-07T02:26:22;100730.40;;;10.70
70533;BMP180;58088;51.186;17.130;2023-05-07T02:28:48;100735.20;;;10.70
70533;BMP180;58088;51.186;17.130;2023-05-07T02:31:14;100734.20;;;10.68
70533;BMP180;58088;51.186;17.130;2023-05-07T02:33:40;100734.80;;;10.66
70533;BMP180;58088;51.186;17.130;2023-05-07T02:36:12;100735.80;;;10.70
70533;BMP180;58088;51.186;17.130;2023-05-07T02:39:14;100730.00;;;10.70
70533;BMP180;58088;51.186;17.130;2023-05-07T02:41:41;100734.40;;;10.60
70533;BMP180;58088;51.186;17.130;2023-05-07T02:44:07;100734.20;;;10.60
70533;BMP180;58088;51.186;17.130;2023-05-07T02:46:33;100742.60;;;10.60
70533;BMP180;58088;51.186;17.130;2023-05-07T02:49:03;100740.20;;;10.60
70533;BMP180;58088;51.186;17.130;2023-05-07T02:51:30;100742.80;;;10.60
70533;BMP180;58088;51.186;17.130;2023-05-07T02:53:57;100736.60;;;10.60
70533;BMP180;58088;51.186;17.130;2023-05-07T02:56:26;100740.80;;;10.68
70533;BMP180;58088;51.186;17.130;2023-05-07T02:58:53;100742.80;;;10.66
70533;BMP180;58088;51.186;17.130;2023-05-07T03:01:19;100745.80;;;10.70
70533;BMP180;58088;51.186;17.130;2023-05-07T03:04:04;100745.60;;;10.60
70533;BMP180;58088;51.186;17.130;2023-05-07T03:06:30;100745.00;;;10.60
70533;BMP180;58088;51.186;17.130;2023-05-07T03:08:57;100743.80;;;10.60
70533;BMP180;58088;51.186;17.130;2023-05-07T03:11:23;100745.60;;;10.60
70533;BMP180;58088;51.186;17.130;2023-05-07T03:13:49;100741.60;;;10.60
70533;BMP180;58088;51.186;17.130;2023-05-07T03:16:16;100751.60;;;10.60
70533;BMP180;58088;51.186;17.130;2023-05-07T03:18:43;100747.20;;;10.60
70533;BMP180;58088;51.186;17.130;2023-05-07T03:21:09;100754.80;;;10.50
70533;BMP180;58088;51.186;17.130;2023-05-07T03:23:35;100758.80;;;10.50
70533;BMP180;58088;51.186;17.130;2023-05-07T03:26:01;100760.60;;;10.50
70533;BMP180;58088;51.186;17.130;2023-05-07T03:28:28;100766.40;;;10.50
70533;BMP180;58088;51.186;17.130;2023-05-07T03:30:58;100770.60;;;10.50
70533;BMP180;58088;51.186;17.130;2023-05-07T03:33:24;100776.80;;;10.50
70533;BMP180;58088;51.186;17.130;2023-05-07T03:35:51;100770.20;;;10.50
70533;BMP180;58088;51.186;17.130;2023-05-07T03:38:20;100766.80;;;10.50
70533;BMP180;58088;51.186;17.130;2023-05-07T03:40:46;100776.80;;;10.50
70533;BMP180;58088;51.186;17.130;2023-05-07T03:43:12;100778.20;;;10.50
70533;BMP180;58088;51.186;17.130;2023-05-07T03:45:42;100775.40;;;10.46
70533;BMP180;58088;51.186;17.130;2023-05-07T03:48:23;100779.60;;;10.44
70533;BMP180;58088;51.186;17.130;2023-05-07T03:50:50;100784.20;;;10.40
70533;BMP180;58088;51.186;17.130;2023-05-07T03:53:16;100784.40;;;10.30
70533;BMP180;58088;51.186;17.130;2023-05-07T03:55:43;100790.60;;;10.38
70533;BMP180;58088;51.186;17.130;2023-05-07T03:58:09;100794.00;;;10.40
70533;BMP180;58088;51.186;17.130;2023-05-07T04:00:36;100799.80;;;10.40
70533;BMP180;58088;51.186;17.130;2023-05-07T04:03:09;100801.60;;;10.38
70533;BMP180;58088;51.186;17.130;2023-05-07T04:05:35;100800.80;;;10.40
70533;BMP180;58088;51.186;17.130;2023-05-07T04:08:02;100806.40;;;10.32
70533;BMP180;58088;51.186;17.130;2023-05-07T04:10:35;100810.80;;;10.36
70533;BMP180;58088;51.186;17.130;2023-05-07T04:13:04;100815.00;;;10.38
70533;BMP180;58088;51.186;17.130;2023-05-07T04:15:30;100819.40;;;10.40
70533;BMP180;58088;51.186;17.130;2023-05-07T04:17:57;100823.20;;;10.40
70533;BMP180;58088;51.186;17.130;2023-05-07T04:20:23;100825.00;;;10.40
70533;BMP180;58088;51.186;17.130;2023-05-07T04:22:54;100830.20;;;10.30
70533;BMP180;58088;51.186;17.130;2023-05-07T04:25:22;100830.40;;;10.30
70533;BMP180;58088;51.186;17.130;2023-05-07T04:27:51;100833.20;;;10.30
70533;BMP180;58088;51.186;17.130;2023-05-07T04:30:17;100835.20;;;10.30
70533;BMP180;58088;51.186;17.130;2023-05-07T04:32:44;100834.40;;;10.30
70533;BMP180;58088;51.186;17.130;2023-05-07T04:35:11;100850.00;;;10.30
70533;BMP180;58088;51.186;17.130;2023-05-07T04:37:38;100843.20;;;10.30
70533;BMP180;58088;51.186;17.130;2023-05-07T04:40:06;100852.80;;;10.30
70533;BMP180;58088;51.186;17.130;2023-05-07T04:42:33;100856.80;;;10.30
70533;BMP180;58088;51.186;17.130;2023-05-07T04:45:00;100849.60;;;10.30
70533;BMP180;58088;51.186;17.130;2023-05-07T04:47:28;100852.20;;;10.24
70533;BMP180;58088;51.186;17.130;2023-05-07T04:49:54;100854.20;;;10.26
70533;BMP180;58088;51.186;17.130;2023-05-07T04:52:21;100858.20;;;10.24
70533;BMP180;58088;51.186;17.130;2023-05-07T04:54:47;100854.00;;;10.22
70533;BMP180;58088;51.186;17.130;2023-05-07T04:57:14;100865.00;;;10.30
70533;BMP180;58088;51.186;17.130;2023-05-07T04:59:41;100872.80;;;10.30
70533;BMP180;58088;51.186;17.130;2023-05-07T05:02:08;100868.80;;;10.30
70533;BMP180;58088;51.186;17.130;2023-05-07T05:04:34;100870.00;;;10.30
70533;BMP180;58088;51.186;17.130;2023-05-07T05:07:00;100878.60;;;10.30
70533;BMP180;58088;51.186;17.130;2023-05-07T05:09:27;100880.20;;;10.30
70533;BMP180;58088;51.186;17.130;2023-05-07T05:11:53;100885.40;;;10.30
70533;BMP180;58088;51.186;17.130;2023-05-07T05:14:19;100889.80;;;10.30
70533;BMP180;58088;51.186;17.130;2023-05-07T05:16:46;100895.20;;;10.30
70533;BMP180;58088;51.186;17.130;2023-05-07T05:19:12;100892.20;;;10.26
70533;BMP180;58088;51.186;17.130;2023-05-07T05:21:43;100900.60;;;10.26
70533;BMP180;58088;51.186;17.130;2023-05-07T05:24:10;100899.60;;;10.20
70533;BMP180;58088;51.186;17.130;2023-05-07T05:26:36;100903.60;;;10.24
70533;BMP180;58088;51.186;17.130;2023-05-07T05:29:02;100906.00;;;10.30
70533;BMP180;58088;51.186;17.130;2023-05-07T05:31:29;100906.40;;;10.30
70533;BMP180;58088;51.186;17.130;2023-05-07T05:33:55;100906.20;;;10.40
70533;BMP180;58088;51.186;17.130;2023-05-07T05:36:22;100911.00;;;10.40
70533;BMP180;58088;51.186;17.130;2023-05-07T05:38:49;100910.00;;;10.50
70533;BMP180;58088;51.186;17.130;2023-05-07T05:41:16;100906.80;;;10.50
70533;BMP180;58088;51.186;17.130;2023-05-07T05:43:42;100911.40;;;10.50
70533;BMP180;58088;51.186;17.130;2023-05-07T05:46:09;100913.40;;;10.50
70533;BMP180;58088;51.186;17.130;2023-05-07T05:48:37;100913.20;;;10.50
70533;BMP180;58088;51.186;17.130;2023-05-07T05:51:04;100913.40;;;10.50
70533;BMP180;58088;51.186;17.130;2023-05-07T05:53:30;100915.60;;;10.50
70533;BMP180;58088;51.186;17.130;2023-05-07T05:55:56;100910.20;;;10.52
70533;BMP180;58088;51.186;17.130;2023-05-07T05:58:22;100910.80;;;10.60
70533;BMP180;58088;51.186;17.130;2023-05-07T06:00:53;100916.20;;;10.60
70533;BMP180;58088;51.186;17.130;2023-05-07T06:03:20;100908.80;;;10.60
70533;BMP180;58088;51.186;17.130;2023-05-07T06:05:47;100914.80;;;10.64
70533;BMP180;58088;51.186;17.130;2023-05-07T06:08:13;100917.60;;;10.70
70533;BMP180;58088;51.186;17.130;2023-05-07T06:10:43;100925.00;;;10.70
70533;BMP180;58088;51.186;17.130;2023-05-07T06:13:09;100926.40;;;10.70
70533;BMP180;58088;51.186;17.130;2023-05-07T06:15:36;100933.00;;;10.70
70533;BMP180;58088;51.186;17.130;2023-05-07T06:18:06;100930.60;;;10.70
70533;BMP180;58088;51.186;17.130;2023-05-07T06:20:33;100938.20;;;10.70
70533;BMP180;58088;51.186;17.130;2023-05-07T06:22:59;100926.00;;;10.70
70533;BMP180;58088;51.186;17.130;2023-05-07T06:25:27;100933.60;;;10.70
70533;BMP180;58088;51.186;17.130;2023-05-07T06:27:53;100933.20;;;10.70
70533;BMP180;58088;51.186;17.130;2023-05-07T06:30:19;100936.20;;;10.70
70533;BMP180;58088;51.186;17.130;2023-05-07T06:32:46;100940.80;;;10.80
70533;BMP180;58088;51.186;17.130;2023-05-07T06:35:13;100956.00;;;10.80
70533;BMP180;58088;51.186;17.130;2023-05-07T06:37:40;100951.60;;;10.80
70533;BMP180;58088;51.186;17.130;2023-05-07T06:40:12;100954.80;;;10.74
70533;BMP180;58088;51.186;17.130;2023-05-07T06:42:39;100953.20;;;10.80
70533;BMP180;58088;51.186;17.130;2023-05-07T06:45:21;100953.80;;;10.80
70533;BMP180;58088;51.186;17.130;2023-05-07T06:47:47;100962.40;;;10.80
70533;BMP180;58088;51.186;17.130;2023-05-07T06:50:14;100964.20;;;10.80
70533;BMP180;58088;51.186;17.130;2023-05-07T06:52:43;100966.80;;;10.70
70533;BMP180;58088;51.186;17.130;2023-05-07T06:55:10;100968.00;;;10.70
70533;BMP180;58088;51.186;17.130;2023-05-07T06:57:38;100972.20;;;10.80
70533;BMP180;58088;51.186;17.130;2023-05-07T07:00:05;100975.20;;;10.80
70533;BMP180;58088;51.186;17.130;2023-05-07T07:02:40;100971.00;;;10.80
70533;BMP180;58088;51.186;17.130;2023-05-07T07:05:07;100965.40;;;10.80
70533;BMP180;58088;51.186;17.130;2023-05-07T07:07:33;100964.80;;;10.80
70533;BMP180;58088;51.186;17.130;2023-05-07T07:09:59;100969.00;;;10.90
70533;BMP180;58088;51.186;17.130;2023-05-07T07:12:25;100970.80;;;10.90
70533;BMP180;58088;51.186;17.130;2023-05-07T07:14:55;100974.60;;;10.90
70533;BMP180;58088;51.186;17.130;2023-05-07T07:17:22;100969.00;;;10.90
70533;BMP180;58088;51.186;17.130;2023-05-07T07:19:48;100975.20;;;10.90
70533;BMP180;58088;51.186;17.130;2023-05-07T07:22:15;100978.00;;;11.00
70533;BMP180;58088;51.186;17.130;2023-05-07T07:24:41;100985.20;;;11.00
70533;BMP180;58088;51.186;17.130;2023-05-07T07:27:08;100988.00;;;11.00
70533;BMP180;58088;51.186;17.130;2023-05-07T07:29:35;100993.40;;;11.00
70533;BMP180;58088;51.186;17.130;2023-05-07T07:32:01;100992.80;;;11.00
70533;BMP180;58088;51.186;17.130;2023-05-07T07:34:27;100992.60;;;11.00
70533;BMP180;58088;51.186;17.130;2023-05-07T07:36:53;100996.40;;;11.00
70533;BMP180;58088;51.186;17.130;2023-05-07T07:39:19;101000.60;;;11.00
70533;BMP180;58088;51.186;17.130;2023-05-07T07:41:47;101006.60;;;10.98
70533;BMP180;58088;51.186;17.130;2023-05-07T07:44:14;101009.40;;;11.00
70533;BMP180;58088;51.186;17.130;2023-05-07T07:46:40;101013.40;;;10.90
70533;BMP180;58088;51.186;17.130;2023-05-07T07:49:06;101011.20;;;11.00
70533;BMP180;58088;51.186;17.130;2023-05-07T07:51:34;101014.60;;;10.90
70533;BMP180;58088;51.186;17.130;2023-05-07T07:54:00;101025.00;;;10.90
70533;BMP180;58088;51.186;17.130;2023-05-07T07:56:28;101023.00;;;10.90
70533;BMP180;58088;51.186;17.130;2023-05-07T07:58:55;101028.80;;;10.90
70533;BMP180;58088;51.186;17.130;2023-05-07T08:01:21;101040.60;;;10.90
70533;BMP180;58088;51.186;17.130;2023-05-07T08:03:48;101039.40;;;10.90
70533;BMP180;58088;51.186;17.130;2023-05-07T08:06:15;101035.00;;;10.90
70533;BMP180;58088;51.186;17.130;2023-05-07T08:08:42;101030.40;;;10.86
70533;BMP180;58088;51.186;17.130;2023-05-07T08:11:08;101037.20;;;10.70
70533;BMP180;58088;51.186;17.130;2023-05-07T08:13:36;101032.00;;;10.90
70533;BMP180;58088;51.186;17.130;2023-05-07T08:16:04;101028.00;;;10.98
70533;BMP180;58088;51.186;17.130;2023-05-07T08:18:30;101029.20;;;10.90
70533;BMP180;58088;51.186;17.130;2023-05-07T08:20:58;101030.40;;;10.90
70533;BMP180;58088;51.186;17.130;2023-05-07T08:23:25;101037.20;;;10.90
70533;BMP180;58088;51.186;17.130;2023-05-07T08:25:53;101042.00;;;10.90
70533;BMP180;58088;51.186;17.130;2023-05-07T08:28:19;101044.80;;;10.90
70533;BMP180;58088;51.186;17.130;2023-05-07T08:30:47;101047.00;;;10.90
70533;BMP180;58088;51.186;17.130;2023-05-07T08:33:13;101047.60;;;10.80
70533;BMP180;58088;51.186;17.130;2023-05-07T08:35:40;101049.80;;;10.80
70533;BMP180;58088;51.186;17.130;2023-05-07T08:38:06;101051.00;;;10.80
70533;BMP180;58088;51.186;17.130;2023-05-07T08:40:37;101055.60;;;10.80
70533;BMP180;58088;51.186;17.130;2023-05-07T08:43:08;101053.60;;;10.80
70533;BMP180;58088;51.186;17.130;2023-05-07T08:45:39;101055.40;;;10.80
70533;BMP180;58088;51.186;17.130;2023-05-07T08:48:16;101057.80;;;10.90
70533;BMP180;58088;51.186;17.130;2023-05-07T08:50:46;101059.40;;;11.00
70533;BMP180;58088;51.186;17.130;2023-05-07T08:53:13;101060.40;;;11.00
70533;BMP180;58088;51.186;17.130;2023-05-07T08:55:41;101062.40;;;11.04
70533;BMP180;58088;51.186;17.130;2023-05-07T08:58:07;101069.40;;;11.10
70533;BMP180;58088;51.186;17.130;2023-05-07T09:00:37;101079.40;;;11.10
70533;BMP180;58088;51.186;17.130;2023-05-07T09:03:04;101080.80;;;11.10
70533;BMP180;58088;51.186;17.130;2023-05-07T09:05:31;101084.60;;;11.00
70533;BMP180;58088;51.186;17.130;2023-05-07T09:08:02;101099.40;;;11.00
70533;BMP180;58088;51.186;17.130;2023-05-07T09:10:29;101095.00;;;11.00
70533;BMP180;58088;51.186;17.130;2023-05-07T09:12:58;101092.80;;;11.10
70533;BMP180;58088;51.186;17.130;2023-05-07T09:15:25;101090.80;;;11.10
70533;BMP180;58088;51.186;17.130;2023-05-07T09:17:53;101097.20;;;11.10
70533;BMP180;58088;51.186;17.130;2023-05-07T09:20:20;101098.60;;;11.20
70533;BMP180;58088;51.186;17.130;2023-05-07T09:22:46;101101.40;;;11.24
70533;BMP180;58088;51.186;17.130;2023-05-07T09:25:14;101088.40;;;11.30
70533;BMP180;58088;51.186;17.130;2023-05-07T09:27:41;101087.40;;;11.40
70533;BMP180;58088;51.186;17.130;2023-05-07T09:30:09;101085.60;;;11.60
70533;BMP180;58088;51.186;17.130;2023-05-07T09:32:37;101102.20;;;11.66
70533;BMP180;58088;51.186;17.130;2023-05-07T09:35:17;101094.40;;;11.70
70533;BMP180;58088;51.186;17.130;2023-05-07T09:37:45;101092.80;;;11.80
70533;BMP180;58088;51.186;17.130;2023-05-07T09:40:26;101091.40;;;11.80
70533;BMP180;58088;51.186;17.130;2023-05-07T09:42:54;101093.20;;;11.80
70533;BMP180;58088;51.186;17.130;2023-05-07T09:45:28;101094.20;;;11.80
70533;BMP180;58088;51.186;17.130;2023-05-07T09:47:58;101084.60;;;11.80
70533;BMP180;58088;51.186;17.130;2023-05-07T09:50:42;101089.00;;;11.90
70533;BMP180;58088;51.186;17.130;2023-05-07T09:53:12;101088.60;;;12.10
70533;BMP180;58088;51.186;17.130;2023-05-07T09:55:40;101086.60;;;12.20
70533;BMP180;58088;51.186;17.130;2023-05-07T09:58:07;101089.00;;;12.20
70533;BMP180;58088;51.186;17.130;2023-05-07T10:00:33;101092.80;;;12.20
70533;BMP180;58088;51.186;17.130;2023-05-07T10:03:05;101093.80;;;12.20
70533;BMP180;58088;51.186;17.130;2023-05-07T10:05:42;101090.20;;;12.20
70533;BMP180;58088;51.186;17.130;2023-05-07T10:08:11;101091.60;;;12.26
70533;BMP180;58088;51.186;17.130;2023-05-07T10:10:39;101098.80;;;12.30
70533;BMP180;58088;51.186;17.130;2023-05-07T10:13:08;101096.00;;;12.46
70533;BMP180;58088;51.186;17.130;2023-05-07T10:15:38;101099.20;;;12.50
70533;BMP180;58088;51.186;17.130;2023-05-07T10:18:06;101106.40;;;12.60
70533;BMP180;58088;51.186;17.130;2023-05-07T10:20:36;101107.40;;;12.64
70533;BMP180;58088;51.186;17.130;2023-05-07T10:23:05;101108.00;;;12.70
70533;BMP180;58088;51.186;17.130;2023-05-07T10:25:36;101107.80;;;12.80
70533;BMP180;58088;51.186;17.130;2023-05-07T10:28:10;101103.40;;;12.80
70533;BMP180;58088;51.186;17.130;2023-05-07T10:33:29;101105.40;;;13.00
70533;BMP180;58088;51.186;17.130;2023-05-07T10:36:01;101105.20;;;13.00
70533;BMP180;58088;51.186;17.130;2023-05-07T10:38:30;101100.60;;;13.00
70533;BMP180;58088;51.186;17.130;2023-05-07T10:41:00;101112.00;;;13.06
70533;BMP180;58088;51.186;17.130;2023-05-07T10:43:42;101116.80;;;13.06
70533;BMP180;58088;51.186;17.130;2023-05-07T10:46:20;101118.40;;;13.10
70533;BMP180;58088;51.186;17.130;2023-05-07T10:49:07;101121.20;;;13.06
70533;BMP180;58088;51.186;17.130;2023-05-07T10:51:41;101115.80;;;13.04
70533;BMP180;58088;51.186;17.130;2023-05-07T10:56:46;101114.20;;;13.10
70533;BMP180;58088;51.186;17.130;2023-05-07T11:01:54;101108.00;;;13.10
70533;BMP180;58088;51.186;17.130;2023-05-07T11:04:44;101111.20;;;13.16
70533;BMP180;58088;51.186;17.130;2023-05-07T11:07:29;101120.60;;;13.10
70533;BMP180;58088;51.186;17.130;2023-05-07T11:10:06;101116.40;;;13.10
70533;BMP180;58088;51.186;17.130;2023-05-07T11:15:33;101114.20;;;13.06
70533;BMP180;58088;51.186;17.130;2023-05-07T11:18:02;101116.60;;;13.10
70533;BMP180;58088;51.186;17.130;2023-05-07T11:20:50;101116.40;;;13.14
70533;BMP180;58088;51.186;17.130;2023-05-07T11:26:17;101121.00;;;13.30
70533;BMP180;58088;51.186;17.130;2023-05-07T11:28:43;101128.20;;;13.20
70533;BMP180;58088;51.186;17.130;2023-05-07T11:31:13;101126.20;;;13.20
70533;BMP180;58088;51.186;17.130;2023-05-07T11:33:39;101138.40;;;13.10
70533;BMP180;58088;51.186;17.130;2023-05-07T11:36:08;101137.00;;;13.02
70533;BMP180;58088;51.186;17.130;2023-05-07T11:38:39;101144.00;;;13.02
70533;BMP180;58088;51.186;17.130;2023-05-07T11:41:08;101142.60;;;13.10
70533;BMP180;58088;51.186;17.130;2023-05-07T11:43:34;101146.40;;;13.10
70533;BMP180;58088;51.186;17.130;2023-05-07T11:46:10;101138.20;;;13.14
70533;BMP180;58088;51.186;17.130;2023-05-07T11:48:38;101143.80;;;13.22
70533;BMP180;58088;51.186;17.130;2023-05-07T11:51:07;101152.40;;;13.34
70533;BMP180;58088;51.186;17.130;2023-05-07T11:53:40;101151.20;;;13.40
70533;BMP180;58088;51.186;17.130;2023-05-07T11:56:09;101154.80;;;13.40
70533;BMP180;58088;51.186;17.130;2023-05-07T11:58:36;101162.40;;;13.40
70533;BMP180;58088;51.186;17.130;2023-05-07T12:01:08;101169.60;;;13.30
70533;BMP180;58088;51.186;17.130;2023-05-07T12:03:41;101163.40;;;13.30
70533;BMP180;58088;51.186;17.130;2023-05-07T12:06:17;101159.40;;;13.40
70533;BMP180;58088;51.186;17.130;2023-05-07T12:08:46;101160.00;;;13.50
70533;BMP180;58088;51.186;17.130;2023-05-07T12:11:18;101161.80;;;13.60
70533;BMP180;58088;51.186;17.130;2023-05-07T12:13:48;101163.20;;;13.60
70533;BMP180;58088;51.186;17.130;2023-05-07T12:16:14;101160.80;;;13.58
70533;BMP180;58088;51.186;17.130;2023-05-07T12:18:42;101166.60;;;13.60
70533;BMP180;58088;51.186;17.130;2023-05-07T12:21:09;101161.20;;;13.60
70533;BMP180;58088;51.186;17.130;2023-05-07T12:23:38;101165.60;;;13.52
70533;BMP180;58088;51.186;17.130;2023-05-07T12:26:04;101166.00;;;13.50
70533;BMP180;58088;51.186;17.130;2023-05-07T12:28:36;101162.60;;;13.50
70533;BMP180;58088;51.186;17.130;2023-05-07T12:31:03;101167.80;;;13.60
70533;BMP180;58088;51.186;17.130;2023-05-07T12:33:31;101170.40;;;13.60
70533;BMP180;58088;51.186;17.130;2023-05-07T12:35:58;101169.20;;;13.70
70533;BMP180;58088;51.186;17.130;2023-05-07T12:38:25;101176.40;;;13.70
70533;BMP180;58088;51.186;17.130;2023-05-07T12:40:54;101182.00;;;13.60
70533;BMP180;58088;51.186;17.130;2023-05-07T12:43:28;101180.00;;;13.60
70533;BMP180;58088;51.186;17.130;2023-05-07T12:45:59;101176.80;;;13.60
70533;BMP180;58088;51.186;17.130;2023-05-07T12:48:25;101182.20;;;13.60
70533;BMP180;58088;51.186;17.130;2023-05-07T12:50:53;101184.40;;;13.50
70533;BMP180;58088;51.186;17.130;2023-05-07T12:53:23;101179.40;;;13.50
70533;BMP180;58088;51.186;17.130;2023-05-07T12:55:53;101178.20;;;13.42
70533;BMP180;58088;51.186;17.130;2023-05-07T12:58:24;101177.80;;;13.40
70533;BMP180;58088;51.186;17.130;2023-05-07T13:00:51;101179.00;;;13.40
70533;BMP180;58088;51.186;17.130;2023-05-07T13:03:38;101184.80;;;13.40
70533;BMP180;58088;51.186;17.130;2023-05-07T13:06:09;101175.80;;;13.30
70533;BMP180;58088;51.186;17.130;2023-05-07T13:08:39;101183.00;;;13.20
70533;BMP180;58088;51.186;17.130;2023-05-07T13:11:10;101189.20;;;13.10
70533;BMP180;58088;51.186;17.130;2023-05-07T13:13:39;101200.40;;;13.12
70533;BMP180;58088;51.186;17.130;2023-05-07T13:16:09;101202.20;;;13.10
70533;BMP180;58088;51.186;17.130;2023-05-07T13:18:39;101194.20;;;13.10
70533;BMP180;58088;51.186;17.130;2023-05-07T13:21:06;101199.80;;;13.14
70533;BMP180;58088;51.186;17.130;2023-05-07T13:23:32;101206.20;;;13.16
70533;BMP180;58088;51.186;17.130;2023-05-07T13:26:02;101203.80;;;13.20
70533;BMP180;58088;51.186;17.130;2023-05-07T13:28:28;101205.00;;;13.20
70533;BMP180;58088;51.186;17.130;2023-05-07T13:30:54;101213.60;;;13.20
70533;BMP180;58088;51.186;17.130;2023-05-07T13:33:21;101209.40;;;13.30
70533;BMP180;58088;51.186;17.130;2023-05-07T13:35:47;101218.80;;;13.20
70533;BMP180;58088;51.186;17.130;2023-05-07T13:38:13;101221.80;;;13.20
70533;BMP180;58088;51.186;17.130;2023-05-07T13:40:41;101218.40;;;13.10
70533;BMP180;58088;51.186;17.130;2023-05-07T13:43:07;101226.80;;;13.10
70533;BMP180;58088;51.186;17.130;2023-05-07T13:45:33;101218.40;;;13.12
70533;BMP180;58088;51.186;17.130;2023-05-07T13:48:00;101210.80;;;13.20
70533;BMP180;58088;51.186;17.130;2023-05-07T13:50:26;101217.40;;;13.24
70533;BMP180;58088;51.186;17.130;2023-05-07T13:52:53;101211.20;;;13.20
70533;BMP180;58088;51.186;17.130;2023-05-07T13:55:20;101225.40;;;13.10
70533;BMP180;58088;51.186;17.130;2023-05-07T13:57:47;101222.20;;;13.00
70533;BMP180;58088;51.186;17.130;2023-05-07T14:00:14;101216.20;;;13.00
70533;BMP180;58088;51.186;17.130;2023-05-07T14:02:42;101219.80;;;12.98
70533;BMP180;58088;51.186;17.130;2023-05-07T14:05:08;101220.40;;;12.90